Weather at Zelazny Airport

Public forecast

Using degrees Fahrenheit for public forecast. Weather courtesy of forecast.io.

Closest aviation weather report (METAR) to Zelazny Airport

Closest report is Genesee County Airport, 11.3 nm (20.9 km) SE.

2024/05/30 21:56 (retrieved 1 hour ago)

KGVQ 302156Z AUTO 34005KT 10SM CLR 17/01 A3014 RMK AO2 SLP208 T01670006

Closest aviation forecast (TAF) to Zelazny Airport

Closest forecast is Buffalo Niagara International Airport, 21.0 nm (38.8 km) SW.

2024/05/30 18:30 (retrieved 4 hours ago)

TAF KBUF 301729Z 3018/3118 35012KT P6SM FEW050 FM302200 33007KT P6SM SKC FM310100 30004KT P6SM SKC FM311500 27006KT P6SM SKC